createdAt,value
2018-06-12T00:01:08.740Z,72.67
2018-06-12T00:03:37.196Z,72.77
2018-06-12T00:06:05.661Z,70.27
2018-06-12T00:08:34.144Z,70.97
2018-06-12T00:11:02.572Z,63.57
2018-06-12T00:13:31.016Z,69.90
2018-06-12T00:15:59.460Z,66.63
2018-06-12T00:18:27.907Z,66.37
2018-06-12T00:20:56.340Z,70.23
2018-06-12T00:23:24.783Z,70.97
2018-06-12T00:25:53.212Z,68.13
2018-06-12T00:28:21.635Z,65.80
2018-06-12T00:30:50.095Z,67.13
2018-06-12T00:33:18.539Z,62.20
2018-06-12T00:35:46.972Z,60.43
2018-06-12T00:38:15.411Z,64.43
2018-06-12T00:40:43.876Z,60.47
2018-06-12T00:43:12.303Z,67.43
2018-06-12T00:45:40.768Z,66.53
2018-06-12T00:48:09.209Z,65.20
2018-06-12T00:50:37.664Z,63.97
2018-06-12T00:53:06.088Z,64.23
2018-06-12T00:55:34.564Z,60.23
2018-06-12T00:58:02.999Z,64.77
2018-06-12T01:00:31.467Z,59.63
2018-06-12T01:02:59.892Z,58.33
2018-06-12T01:05:28.359Z,60.93
2018-06-12T01:07:56.792Z,52.70
2018-06-12T01:10:25.283Z,59.23
2018-06-12T01:12:53.747Z,61.00
2018-06-12T01:15:22.203Z,55.93
2018-06-12T01:17:50.657Z,59.40
2018-06-12T01:20:19.120Z,59.83
2018-06-12T01:22:47.548Z,54.73
2018-06-12T01:25:15.982Z,66.80
2018-06-12T01:27:44.460Z,62.23
2018-06-12T01:30:12.895Z,56.53
2018-06-12T01:32:41.344Z,55.13
2018-06-12T01:35:09.804Z,57.17
2018-06-12T01:37:38.256Z,56.00
2018-06-12T01:40:06.708Z,58.40
2018-06-12T01:42:35.133Z,59.03
2018-06-12T01:45:03.608Z,56.87
2018-06-12T01:47:32.896Z,57.20
2018-06-12T01:50:01.356Z,58.13
2018-06-12T01:52:29.782Z,56.27
2018-06-12T01:54:58.233Z,57.77
2018-06-12T01:57:26.691Z,54.07
2018-06-12T01:59:55.145Z,56.87
2018-06-12T02:02:23.571Z,58.70
2018-06-12T02:04:52.005Z,50.40
2018-06-12T02:07:20.482Z,54.97
2018-06-12T02:09:48.912Z,54.97
2018-06-12T02:12:17.388Z,54.00
2018-06-12T02:14:45.819Z,58.07
2018-06-12T02:17:14.275Z,55.07
2018-06-12T02:19:42.703Z,51.70
2018-06-12T02:22:11.136Z,61.70
2018-06-12T02:24:39.575Z,55.47
2018-06-12T02:27:08.020Z,60.37
2018-06-12T02:29:36.479Z,54.73
2018-06-12T02:32:05.112Z,60.57
2018-06-12T02:34:33.259Z,58.77
2018-06-12T02:37:01.729Z,52.60
2018-06-12T02:39:30.164Z,55.77
2018-06-12T02:41:58.620Z,39.47
2018-06-12T02:44:26.804Z,27.90
2018-06-12T02:46:55.215Z,25.10
2018-06-12T02:49:23.655Z,25.10
2018-06-12T02:51:51.807Z,21.10
2018-06-12T02:54:20.232Z,22.20
2018-06-12T02:56:48.677Z,18.47
2018-06-12T02:59:17.128Z,20.70
2018-06-12T03:01:45.576Z,19.67
2018-06-12T03:04:14.027Z,22.07
2018-06-12T03:06:42.464Z,19.23
2018-06-12T03:09:10.969Z,22.00
2018-06-12T03:11:39.400Z,21.03
2018-06-12T03:14:07.852Z,21.80
2018-06-12T03:16:35.979Z,23.30
2018-06-12T03:19:04.415Z,21.03
2018-06-12T03:21:32.571Z,23.03
2018-06-12T03:24:00.999Z,27.13
2018-06-12T03:26:29.456Z,20.40
2018-06-12T03:28:57.896Z,22.60
2018-06-12T03:31:26.347Z,20.30
2018-06-12T03:33:54.776Z,22.00
2018-06-12T03:36:23.227Z,26.13
2018-06-12T03:38:51.650Z,22.03
2018-06-12T03:41:19.771Z,27.67
2018-06-12T03:43:48.219Z,18.70
2018-06-12T03:46:16.827Z,22.37
2018-06-12T03:48:45.278Z,28.17
2018-06-12T03:51:13.394Z,19.17
2018-06-12T03:53:41.852Z,23.53
2018-06-12T03:56:10.320Z,24.43
2018-06-12T03:58:38.784Z,24.40
2018-06-12T04:01:06.897Z,22.33
2018-06-12T04:03:35.340Z,21.77
2018-06-12T04:06:03.504Z,21.83
2018-06-12T04:08:31.968Z,21.80
2018-06-12T04:11:00.480Z,24.50
2018-06-12T04:13:28.615Z,19.07
2018-06-12T04:15:57.105Z,23.63
2018-06-12T04:18:25.588Z,17.87
2018-06-12T04:20:54.080Z,18.27
2018-06-12T04:23:22.524Z,19.20
2018-06-12T04:25:50.959Z,14.10
2018-06-12T04:28:19.417Z,15.60
2018-06-12T04:30:47.922Z,15.27
2018-06-12T04:33:16.092Z,14.13
2018-06-12T04:35:44.558Z,21.20
2018-06-12T04:38:13.312Z,20.33
2018-06-12T04:40:41.789Z,15.53
2018-06-12T04:43:10.353Z,15.40
2018-06-12T04:45:38.830Z,13.83
2018-06-12T04:48:07.350Z,13.73
2018-06-12T04:50:36.811Z,13.00
2018-06-12T04:53:04.977Z,13.37
2018-06-12T04:55:33.470Z,17.23
2018-06-12T04:58:01.952Z,15.70
2018-06-12T05:00:30.128Z,11.73
2018-06-12T05:02:58.576Z,13.97
2018-06-12T05:05:27.024Z,12.27
2018-06-12T05:07:55.448Z,14.60
2018-06-12T05:10:23.892Z,12.57
2018-06-12T05:12:52.319Z,14.57
2018-06-12T05:15:20.469Z,12.23
2018-06-12T05:17:48.962Z,13.20
2018-06-12T05:20:17.404Z,10.53
2018-06-12T05:22:45.840Z,11.27
2018-06-12T05:25:14.260Z,9.80
2018-06-12T05:27:42.703Z,11.30
2018-06-12T05:30:11.142Z,10.77
2018-06-12T05:32:39.592Z,12.43
2018-06-12T05:35:08.012Z,12.60
2018-06-12T05:37:36.471Z,13.90
2018-06-12T05:40:04.969Z,10.30
2018-06-12T05:42:33.396Z,12.00
2018-06-12T05:45:01.838Z,12.70
2018-06-12T05:47:30.275Z,11.03
2018-06-12T05:49:58.728Z,12.93
2018-06-12T05:52:27.150Z,13.83
2018-06-12T05:54:55.599Z,12.03
2018-06-12T05:57:24.032Z,11.00
2018-06-12T05:59:52.464Z,11.60
2018-06-12T06:02:20.936Z,13.37
2018-06-12T06:04:49.059Z,10.93
2018-06-12T06:07:17.524Z,14.80
2018-06-12T06:09:45.956Z,15.50
2018-06-12T06:12:14.404Z,12.97
2018-06-12T06:14:42.839Z,47.70
2018-06-12T06:17:10.952Z,31.00
2018-06-12T06:19:39.412Z,17.00
2018-06-12T06:22:07.851Z,16.50
2018-06-12T06:24:36.295Z,12.53
2018-06-12T06:27:04.744Z,12.83
2018-06-12T06:29:33.199Z,15.83
2018-06-12T06:32:01.649Z,15.93
2018-06-12T06:34:30.079Z,21.30
2018-06-12T06:36:58.222Z,25.73
2018-06-12T06:39:26.652Z,16.63
2018-06-12T06:41:55.103Z,13.00
2018-06-12T06:44:23.220Z,11.50
2018-06-12T06:46:51.676Z,13.17
2018-06-12T06:49:19.791Z,12.27
2018-06-12T06:51:48.264Z,11.00
2018-06-12T06:54:16.699Z,12.60
2018-06-12T06:56:45.132Z,12.03
2018-06-12T06:59:13.592Z,12.57
2018-06-12T07:01:42.012Z,14.30
2018-06-12T07:04:10.468Z,11.33
2018-06-12T07:06:38.901Z,14.50
2018-06-12T07:09:07.706Z,12.97
2018-06-12T07:11:36.107Z,11.13
2018-06-12T07:14:04.584Z,11.20
2018-06-12T07:16:33.039Z,11.27
2018-06-12T07:19:01.215Z,12.03
2018-06-12T07:21:35.099Z,11.33
2018-06-12T07:24:03.536Z,13.03
2018-06-12T07:26:31.984Z,12.37
2018-06-12T07:29:00.412Z,13.63
2018-06-12T07:31:28.861Z,11.93
2018-06-12T07:33:57.300Z,12.77
2018-06-12T07:36:25.738Z,12.50
2018-06-12T07:38:54.200Z,13.93
2018-06-12T07:41:22.632Z,11.63
2018-06-12T07:43:51.088Z,12.57
2018-06-12T07:46:19.524Z,14.10
2018-06-12T07:48:47.769Z,11.90
2018-06-12T07:51:16.240Z,14.83
2018-06-12T07:53:44.716Z,12.93
2018-06-12T07:56:13.178Z,11.40
2018-06-12T07:58:41.672Z,13.40
2018-06-12T08:01:10.120Z,15.10
2018-06-12T08:03:38.560Z,11.40
2018-06-12T08:06:07.012Z,11.73
2018-06-12T08:08:35.435Z,13.10
2018-06-12T08:11:03.900Z,18.27
2018-06-12T08:13:32.323Z,11.63
2018-06-12T08:16:00.772Z,11.10
2018-06-12T08:18:29.219Z,13.00
2018-06-12T08:20:57.668Z,15.03
2018-06-12T08:23:26.125Z,11.93
2018-06-12T08:25:54.571Z,12.70
2018-06-12T08:28:23.035Z,13.43
2018-06-12T08:30:51.460Z,12.70
2018-06-12T08:33:19.920Z,12.63
2018-06-12T08:35:48.039Z,14.00
2018-06-12T08:38:16.508Z,12.50
2018-06-12T08:40:44.948Z,13.97
2018-06-12T08:43:13.380Z,13.90
2018-06-12T08:45:41.840Z,14.47
2018-06-12T08:48:09.958Z,13.47
2018-06-12T08:50:38.424Z,16.00
2018-06-12T08:53:07.164Z,12.90
2018-06-12T08:55:35.636Z,15.83
2018-06-12T08:58:04.081Z,16.80
2018-06-12T09:00:32.519Z,17.27
2018-06-12T09:03:00.968Z,13.40
2018-06-12T09:05:29.415Z,14.13
2018-06-12T09:07:57.879Z,13.57
2018-06-12T09:10:26.308Z,15.43
2018-06-12T09:12:54.759Z,14.07
2018-06-12T09:15:23.192Z,13.60
2018-06-12T09:17:51.647Z,14.63
2018-06-12T09:20:20.075Z,17.80
2018-06-12T09:22:48.216Z,16.73
2018-06-12T09:25:16.654Z,18.27
2018-06-12T09:27:48.043Z,17.60
2018-06-12T09:30:16.567Z,12.80
2018-06-12T09:32:44.762Z,16.90
2018-06-12T09:35:13.220Z,13.70
2018-06-12T09:37:41.683Z,14.17
2018-06-12T09:40:10.124Z,13.83
2018-06-12T09:42:38.584Z,13.80
2018-06-12T09:45:07.068Z,15.77
2018-06-12T09:47:35.528Z,24.20
2018-06-12T09:50:03.675Z,12.93
2018-06-12T09:52:32.131Z,12.83
2018-06-12T09:55:00.567Z,14.50
2018-06-12T09:57:28.683Z,16.70
2018-06-12T09:59:57.135Z,18.53
2018-06-12T10:02:25.564Z,14.50
2018-06-12T10:04:54.020Z,15.00
2018-06-12T10:07:22.449Z,14.40
2018-06-12T10:09:50.591Z,16.40
2018-06-12T10:12:19.024Z,15.50
2018-06-12T10:14:47.478Z,14.50
2018-06-12T10:17:15.924Z,14.43
2018-06-12T10:19:44.348Z,14.00
2018-06-12T10:22:12.488Z,14.50
2018-06-12T10:24:40.923Z,14.90
2018-06-12T10:27:09.373Z,16.60
2018-06-12T10:29:37.792Z,14.83
2018-06-12T10:32:06.291Z,12.27
2018-06-12T10:34:34.732Z,14.43
2018-06-12T10:37:03.236Z,15.53
2018-06-12T10:39:31.648Z,15.37
2018-06-12T10:42:00.075Z,15.50
2018-06-12T10:44:28.203Z,15.20
2018-06-12T10:46:56.631Z,17.63
2018-06-12T10:49:24.763Z,14.53
2018-06-12T10:51:53.180Z,14.23
2018-06-12T10:54:21.311Z,15.23
2018-06-12T10:56:49.764Z,14.87
2018-06-12T10:59:18.192Z,12.60
2018-06-12T11:01:46.652Z,14.50
2018-06-12T11:04:15.068Z,14.93
2018-06-12T11:06:43.211Z,13.97
2018-06-12T11:09:11.645Z,13.60
2018-06-12T11:11:40.076Z,13.93
2018-06-12T11:14:08.523Z,13.70
2018-06-12T11:16:36.947Z,13.57
2018-06-12T11:19:05.512Z,17.33
2018-06-12T11:21:33.952Z,16.00
2018-06-12T11:24:02.388Z,21.03
2018-06-12T11:26:30.840Z,19.77
2018-06-12T11:28:59.266Z,13.63
2018-06-12T11:31:27.411Z,16.37
2018-06-12T11:33:55.843Z,15.67
2018-06-12T11:36:24.299Z,15.93
2018-06-12T11:38:52.736Z,15.10
2018-06-12T11:41:21.180Z,15.33
2018-06-12T11:43:50.016Z,13.97
2018-06-12T11:46:18.470Z,14.63
2018-06-12T11:48:46.963Z,15.03
2018-06-12T11:51:15.419Z,15.53
2018-06-12T11:53:43.879Z,16.37
2018-06-12T11:56:12.043Z,14.43
2018-06-12T11:58:40.502Z,15.27
2018-06-12T12:01:09.100Z,14.77
2018-06-12T12:03:37.533Z,14.57
2018-06-12T12:06:05.999Z,15.73
2018-06-12T12:08:34.439Z,13.70
2018-06-12T12:11:02.899Z,14.27
2018-06-12T12:13:31.360Z,16.30
2018-06-12T12:15:59.794Z,14.70
2018-06-12T12:18:28.244Z,14.57
2018-06-12T12:20:56.675Z,13.67
2018-06-12T12:23:25.149Z,13.67
2018-06-12T12:25:53.600Z,13.40
2018-06-12T12:28:22.031Z,13.70
2018-06-12T12:30:50.492Z,17.37
2018-06-12T12:33:18.928Z,15.00
2018-06-12T12:35:47.372Z,14.07
2018-06-12T12:38:15.832Z,14.47
2018-06-12T12:40:43.956Z,13.37
2018-06-12T12:43:12.424Z,16.43
2018-06-12T12:45:40.864Z,15.43
2018-06-12T12:48:09.283Z,14.93
2018-06-12T12:50:37.757Z,15.17
2018-06-12T12:53:06.377Z,15.13
2018-06-12T12:55:34.972Z,13.70
2018-06-12T12:58:03.435Z,15.97
2018-06-12T13:00:31.920Z,14.30
2018-06-12T13:03:00.397Z,15.37
2018-06-12T13:05:28.856Z,16.07
2018-06-12T13:07:57.348Z,12.77
2018-06-12T13:10:25.800Z,16.33
2018-06-12T13:12:54.279Z,14.63
2018-06-12T13:15:22.412Z,14.20
2018-06-12T13:17:50.865Z,14.20
2018-06-12T13:20:19.305Z,13.00
2018-06-12T13:22:47.747Z,13.20
2018-06-12T13:25:16.207Z,13.77
2018-06-12T13:27:44.637Z,12.67
2018-06-12T13:30:13.088Z,13.23
2018-06-12T13:32:41.536Z,13.30
2018-06-12T13:35:09.981Z,14.67
2018-06-12T13:37:38.430Z,11.87
2018-06-12T13:40:06.876Z,11.80
2018-06-12T13:42:35.323Z,11.93
2018-06-12T13:45:03.800Z,12.03
2018-06-12T13:47:32.236Z,11.87
2018-06-12T13:50:00.696Z,11.00
2018-06-12T13:52:29.130Z,11.73
2018-06-12T13:54:57.575Z,10.50
2018-06-12T13:57:26.052Z,11.13
2018-06-12T13:59:54.540Z,11.10
2018-06-12T14:02:23.009Z,13.93
2018-06-12T14:04:51.484Z,15.50
2018-06-12T14:07:19.975Z,10.60
2018-06-12T14:09:48.452Z,12.13
2018-06-12T14:12:16.916Z,11.63
2018-06-12T14:14:45.332Z,10.10
2018-06-12T14:17:13.775Z,10.37
2018-06-12T14:19:42.199Z,10.70
2018-06-12T14:22:10.616Z,12.60
2018-06-12T14:24:39.069Z,10.90
2018-06-12T14:27:07.507Z,10.27
2018-06-12T14:29:35.643Z,9.03
2018-06-12T14:32:04.067Z,11.20
2018-06-12T14:34:32.503Z,11.47
2018-06-12T14:37:00.919Z,9.47
2018-06-12T14:39:29.051Z,8.67
2018-06-12T14:41:57.463Z,8.93
2018-06-12T14:44:25.583Z,9.13
2018-06-12T14:46:54.035Z,8.60
2018-06-12T14:49:22.484Z,8.53
2018-06-12T14:51:50.924Z,8.70
2018-06-12T14:54:19.352Z,11.60
2018-06-12T14:56:47.796Z,9.00
2018-06-12T14:59:16.220Z,8.80
2018-06-12T15:01:44.644Z,8.80
2018-06-12T15:04:13.092Z,8.73
2018-06-12T15:06:41.195Z,8.07
2018-06-12T15:09:09.635Z,9.17
2018-06-12T15:11:38.060Z,9.37
2018-06-12T15:14:06.588Z,8.00
2018-06-12T15:16:35.009Z,8.60
2018-06-12T15:19:03.436Z,10.67
2018-06-12T15:21:31.883Z,7.97
2018-06-12T15:24:00.348Z,8.20
2018-06-12T15:26:28.788Z,11.47
2018-06-12T15:28:57.236Z,9.50
2018-06-12T15:31:25.691Z,9.27
2018-06-12T15:33:54.181Z,12.10
2018-06-12T15:36:22.628Z,11.37
2018-06-12T15:38:51.082Z,10.10
2018-06-12T15:41:19.652Z,10.37
2018-06-12T15:43:48.147Z,9.87
2018-06-12T15:46:16.616Z,10.90
2018-06-12T15:48:45.066Z,9.80
2018-06-12T15:51:13.553Z,12.17
2018-06-12T15:53:41.980Z,11.37
2018-06-12T15:56:10.480Z,10.93
2018-06-12T15:58:38.872Z,10.27
2018-06-12T16:01:07.340Z,9.93
2018-06-12T16:03:35.475Z,12.23
2018-06-12T16:06:03.911Z,10.77
2018-06-12T16:08:32.356Z,10.77
2018-06-12T16:11:00.783Z,10.27
2018-06-12T16:13:29.224Z,10.53
2018-06-12T16:15:57.636Z,10.57
2018-06-12T16:18:26.084Z,11.80
2018-06-12T16:20:54.535Z,11.13
2018-06-12T16:23:22.975Z,10.77
2018-06-12T16:25:51.088Z,12.93
2018-06-12T16:28:19.511Z,13.63
2018-06-12T16:30:47.960Z,10.83
2018-06-12T16:33:16.391Z,11.20
2018-06-12T16:35:44.846Z,11.27
2018-06-12T16:38:13.272Z,11.00
2018-06-12T16:40:41.715Z,10.20
2018-06-12T16:43:10.139Z,10.63
2018-06-12T16:45:38.592Z,10.20
2018-06-12T16:48:06.705Z,9.90
2018-06-12T16:50:35.175Z,10.07
2018-06-12T16:53:03.600Z,11.07
2018-06-12T16:55:32.048Z,10.30
2018-06-12T16:58:00.503Z,8.43
2018-06-12T17:00:28.937Z,9.03
2018-06-12T17:02:57.396Z,9.50
2018-06-12T17:05:25.888Z,9.23
2018-06-12T17:07:54.340Z,10.77
2018-06-12T17:10:22.834Z,8.27
2018-06-12T17:12:50.894Z,7.40
2018-06-12T17:15:19.372Z,8.30
2018-06-12T17:17:47.829Z,7.53
2018-06-12T17:20:16.308Z,7.50
2018-06-12T17:22:44.423Z,33.47
2018-06-12T17:25:12.867Z,12.77
2018-06-12T17:27:40.974Z,7.67
2018-06-12T17:30:09.436Z,8.97
2018-06-12T17:32:37.864Z,7.40
2018-06-12T17:35:06.318Z,8.93
2018-06-12T17:37:34.774Z,9.17
2018-06-12T17:40:03.212Z,7.73
2018-06-12T17:42:31.359Z,8.03
2018-06-12T17:44:59.787Z,7.43
2018-06-12T17:47:27.928Z,6.90
2018-06-12T17:49:56.345Z,8.17
2018-06-12T17:52:24.459Z,8.80
2018-06-12T17:54:52.933Z,6.90
2018-06-12T17:57:21.348Z,6.53
2018-06-12T17:59:49.807Z,6.43
2018-06-12T18:02:18.227Z,6.13
2018-06-12T18:04:46.675Z,5.30
2018-06-12T18:07:15.113Z,6.70
2018-06-12T18:09:43.572Z,7.27
2018-06-12T18:12:11.983Z,9.07
2018-06-12T18:14:40.421Z,6.43
2018-06-12T18:17:08.879Z,6.57
2018-06-12T18:19:37.300Z,7.27
2018-06-12T18:22:05.826Z,7.07
2018-06-12T18:24:34.300Z,7.60
2018-06-12T18:27:02.735Z,5.80
2018-06-12T18:29:31.155Z,5.10
2018-06-12T18:31:59.607Z,5.50
2018-06-12T18:34:28.023Z,5.30
2018-06-12T18:36:56.456Z,5.60
2018-06-12T18:39:24.904Z,4.30
2018-06-12T18:41:53.334Z,5.07
2018-06-12T18:44:21.776Z,5.07
2018-06-12T18:46:50.206Z,5.87
2018-06-12T18:49:18.651Z,8.50
2018-06-12T18:51:47.117Z,5.30
2018-06-12T18:54:15.535Z,4.60
2018-06-12T18:56:44.360Z,4.80
2018-06-12T18:59:12.466Z,6.23
2018-06-12T19:01:40.920Z,5.73
2018-06-12T19:04:09.048Z,4.73
2018-06-12T19:06:37.559Z,4.77
2018-06-12T19:09:07.025Z,3.80
2018-06-12T19:11:35.492Z,4.67
2018-06-12T19:14:03.978Z,6.30
2018-06-12T19:16:32.408Z,4.43
2018-06-12T19:19:00.843Z,5.33
2018-06-12T19:21:29.263Z,5.33
2018-06-12T19:23:57.712Z,4.83
2018-06-12T19:26:26.220Z,6.07
2018-06-12T19:28:54.636Z,4.80
2018-06-12T19:31:23.088Z,6.67
2018-06-12T19:33:51.928Z,4.67
2018-06-12T19:36:20.360Z,7.40
2018-06-12T19:38:48.812Z,6.03
2018-06-12T19:41:17.236Z,4.33
2018-06-12T19:43:45.676Z,4.50
2018-06-12T19:46:14.103Z,4.97
2018-06-12T19:48:42.551Z,4.60
2018-06-12T19:51:11.033Z,4.23
2018-06-12T19:53:39.504Z,7.27
2018-06-12T19:56:07.944Z,4.10
2018-06-12T19:58:36.369Z,3.90
2018-06-12T20:01:04.898Z,4.73
2018-06-12T20:03:33.267Z,4.60
2018-06-12T20:06:01.712Z,5.40
2018-06-12T20:08:30.177Z,4.47
2018-06-12T20:10:58.636Z,7.77
2018-06-12T20:13:26.743Z,4.30
2018-06-12T20:15:55.187Z,6.73
2018-06-12T20:18:23.628Z,4.20
2018-06-12T20:20:52.051Z,4.30
2018-06-12T20:23:20.184Z,6.43
2018-06-12T20:25:48.612Z,4.60
2018-06-12T20:28:17.057Z,7.00
2018-06-12T20:30:45.499Z,7.10
2018-06-12T20:33:13.970Z,4.60
2018-06-12T20:35:42.388Z,5.93
2018-06-12T20:38:10.823Z,4.90
2018-06-12T20:40:39.253Z,4.67
2018-06-12T20:43:07.684Z,6.20
2018-06-12T20:45:36.155Z,5.00
2018-06-12T20:48:04.638Z,4.87
2018-06-12T20:50:33.091Z,11.47
2018-06-12T20:53:01.512Z,5.77
2018-06-12T20:55:29.961Z,5.00
2018-06-12T20:57:58.078Z,9.53
2018-06-12T21:00:26.528Z,5.00
2018-06-12T21:02:54.956Z,4.70
2018-06-12T21:05:23.391Z,5.80
2018-06-12T21:07:51.852Z,8.07
2018-06-12T21:10:19.977Z,4.97
2018-06-12T21:12:48.421Z,4.53
2018-06-12T21:15:16.852Z,7.17
2018-06-12T21:17:45.299Z,7.10
2018-06-12T21:20:13.728Z,7.77
2018-06-12T21:22:42.178Z,5.10
2018-06-12T21:25:10.603Z,5.20
2018-06-12T21:27:39.049Z,7.67
2018-06-12T21:30:07.508Z,4.90
2018-06-12T21:32:35.932Z,5.40
2018-06-12T21:35:04.431Z,5.10
2018-06-12T21:37:32.843Z,5.70
2018-06-12T21:40:01.290Z,7.37
2018-06-12T21:42:29.712Z,5.43
2018-06-12T21:44:58.151Z,5.73
2018-06-12T21:47:26.572Z,5.90
2018-06-12T21:49:55.016Z,7.13
2018-06-12T21:52:23.432Z,9.00
2018-06-12T21:54:51.847Z,9.43
2018-06-12T21:57:20.287Z,6.33
2018-06-12T21:59:48.716Z,9.40
2018-06-12T22:02:17.183Z,11.20
2018-06-12T22:04:45.611Z,6.53
2018-06-12T22:07:14.060Z,7.00
2018-06-12T22:09:42.486Z,12.67
2018-06-12T22:12:10.944Z,9.47
2018-06-12T22:14:39.376Z,6.97
2018-06-12T22:17:07.849Z,7.57
2018-06-12T22:19:36.268Z,8.23
2018-06-12T22:22:04.691Z,8.90
2018-06-12T22:24:33.140Z,7.93
2018-06-12T22:27:01.569Z,8.63
2018-06-12T22:29:30.036Z,8.57
2018-06-12T22:31:58.465Z,9.30
2018-06-12T22:34:26.920Z,6.57
2018-06-12T22:36:55.350Z,8.13
2018-06-12T22:39:23.799Z,8.83
2018-06-12T22:41:52.215Z,6.93
2018-06-12T22:44:20.326Z,8.87
2018-06-12T22:46:48.779Z,23.67
2018-06-12T22:49:16.887Z,7.00
2018-06-12T22:51:45.626Z,8.23
2018-06-12T22:54:14.089Z,8.43
2018-06-12T22:56:42.577Z,7.10
2018-06-12T22:59:11.037Z,10.90
2018-06-12T23:01:39.544Z,6.90
2018-06-12T23:04:08.029Z,6.23
2018-06-12T23:06:36.506Z,8.03
2018-06-12T23:09:07.565Z,6.77
2018-06-12T23:11:35.685Z,5.90
2018-06-12T23:14:04.404Z,7.97
2018-06-12T23:16:32.864Z,6.40
2018-06-12T23:19:01.284Z,8.10
2018-06-12T23:21:38.983Z,10.03
2018-06-12T23:24:07.103Z,6.20
2018-06-12T23:26:35.544Z,6.33
2018-06-12T23:29:03.675Z,6.37
2018-06-12T23:31:32.091Z,7.33
2018-06-12T23:34:00.543Z,10.13
2018-06-12T23:36:29.287Z,6.33
2018-06-12T23:38:57.732Z,5.90
2018-06-12T23:41:26.161Z,6.37
2018-06-12T23:43:54.984Z,6.10
2018-06-12T23:46:23.437Z,5.90
2018-06-12T23:48:52.151Z,8.87
2018-06-12T23:51:20.592Z,6.17
2018-06-12T23:53:49.009Z,6.70
2018-06-12T23:56:17.452Z,6.00
2018-06-12T23:58:45.871Z,7.27
